MSC Melatilde — 3FYE4 — position and weather

sailwx.info

Track history (hours):
 
Tides and Currents Weather Stations Pressure Air Temp Water Temp Dewpoint Dewpoint Depression Visibility Wind Speed Wind Dir Waves Ship Positions

MSC Melatilde

Last reported at 2017-Sep-22 00:58 UTC. Time now 2017-Sep-22 01:14 UTC.
Position N 30°17' E 122°46'.

Length 365 m; draft 10.6 m.

Type: Ship. MMSI: 357240000.

Date/timePositionNaut miles runAvg speedWind from/ knotsBaromVisibWave heightAir tempDewpointWater temp
2017-Sep-22 00:58N 30°17' E 122°46'1916.5
2017-Sep-21 23:51N 29°58' E 122°44'817.2
2017-Sep-21 23:24N 29°52' E 122°39'614.9
2017-Sep-21 23:00N 29°47' E 122°35'713.6
2017-Sep-21 22:30N 29°42' E 122°30'815.2
2017-Sep-21 22:00N 29°44' E 122°21'713.9
2017-Sep-21 21:31N 29°48' E 122°15'713.5
2017-Sep-21 21:01N 29°53' E 122°11'612.3
2017-Sep-21 20:30N 29°54' E 122°04'1 2.2
2017-Sep-21 20:00N 29°53' E 122°02'0 0.0
2017-Sep-21 19:26N 29°53' E 122°02'0 0.0
2017-Sep-21 18:38N 29°53' E 122°02'0 0.0
2017-Sep-21 18:14N 29°53' E 122°02'0 0.0
2017-Sep-21 17:45N 29°53' E 122°02'0 0.0
2017-Sep-21 17:04N 29°53' E 122°02'0 0.0
2017-Sep-21 16:58N 29°53' E 122°02'0 0.0
2017-Sep-21 16:28N 29°53' E 122°02'0 0.0
2017-Sep-21 15:46N 29°53' E 122°02'0 0.0
2017-Sep-21 15:22N 29°53' E 122°02'0 0.0
2017-Sep-21 14:58N 29°53' E 122°02'0 0.0
2017-Sep-21 14:28N 29°53' E 122°02'0 0.0
2017-Sep-21 14:00N 29°53' E 122°02'0 0.0
2017-Sep-21 13:18N 29°53' E 122°02'0 0.0
2017-Sep-21 13:00N 29°53' E 122°02'0 0.0
2017-Sep-21 12:30N 29°53' E 122°02'0 0.0
2017-Sep-21 11:54N 29°53' E 122°02'0 0.0
2017-Sep-21 11:30N 29°53' E 122°02'0 0.0
2017-Sep-21 10:36N 29°53' E 122°02'0 0.0
2017-Sep-21 10:30N 29°53' E 122°02'0 0.0
2017-Sep-21 10:00N 29°53' E 122°02'0 0.0
2017-Sep-21 09:30N 29°53' E 122°02'0 0.0
2017-Sep-21 09:00N 29°53' E 122°02'0 0.0
2017-Sep-21 08:30N 29°53' E 122°02'0 0.0
2017-Sep-21 08:00N 29°53' E 122°02'0 0.0
2017-Sep-21 07:30N 29°53' E 122°02'0 0.0
2017-Sep-21 06:48N 29°53' E 122°02'0 0.0
2017-Sep-21 06:24N 29°53' E 122°02'0 0.0
2017-Sep-21 05:54N 29°53' E 122°02'0 0.0
2017-Sep-21 04:54N 29°53' E 122°02'0 0.0
2017-Sep-21 04:30N 29°53' E 122°02'0 0.0
2017-Sep-21 04:00N 29°53' E 122°02'0 0.0
2017-Sep-21 03:30N 29°53' E 122°02'0 0.0
2017-Sep-21 03:00N 29°53' E 122°02'0 0.0
2017-Sep-21 02:18N 29°53' E 122°02'0 0.0
2017-Sep-21 02:00N 29°53' E 122°02'0 0.0
2017-Sep-21 01:24N 29°53' E 122°02'0 0.0
2017-Sep-21 01:00N 29°53' E 122°02'0 0.0
2017-Sep-21 00:30N 29°53' E 122°02'0 0.0
2017-Sep-20 23:54N 29°53' E 122°02'0 0.0
2017-Sep-20 23:30N 29°53' E 122°02'0 0.0
2017-Sep-20 23:00N 29°53' E 122°02'0 0.0
2017-Sep-20 22:30N 29°53' E 122°02'0 0.0
2017-Sep-20 22:00N 29°53' E 122°02'0 0.0
2017-Sep-20 21:18N 29°53' E 122°02'0 0.0
2017-Sep-20 21:00N 29°53' E 122°02'0 0.0
2017-Sep-20 20:12N 29°53' E 122°02'0 0.0
2017-Sep-20 17:13N 29°53' E 122°02'0 0.0
2017-Sep-20 16:55N 29°53' E 122°02'0 0.0
2017-Sep-20 16:26N 29°53' E 122°02'0 0.4
2017-Sep-20 16:00N 29°54' E 122°03'3 5.4
2017-Sep-20 15:29N 29°55' E 122°05'4 7.6
2017-Sep-20 15:01N 29°55' E 122°09'1111.4
2017-Sep-20 14:00N 29°46' E 122°17'611.2
2017-Sep-20 13:30N 29°44' E 122°23'612.1
2017-Sep-20 13:01N 29°42' E 122°30'713.1
2017-Sep-20 12:30N 29°42' E 122°37'510.6
2017-Sep-20 12:00N 29°46' E 122°41'0 0.7
2017-Sep-20 11:29N 29°46' E 122°42'1 1.0
2017-Sep-20 11:00N 29°46' E 122°42'2 4.7
2017-Sep-20 10:30N 29°48' E 122°43'3 6.7
2017-Sep-20 10:00N 29°51' E 122°45'4 7.0
2017-Sep-20 09:29N 29°54' E 122°48'7 8.4
2017-Sep-20 08:39N 29°58' E 122°54'202 8.5
2017-Sep-19 08:45N 32°11' E 125°52'2 8.3
2017-Sep-19 08:29N 32°11' E 125°55'13 9.9
2017-Sep-19 07:13N 32°20' E 126°06'313.3
2017-Sep-19 07:00N 32°22' E 126°08'1613.3
2017-Sep-19 05:50N 32°33' E 126°21'413.3
2017-Sep-19 05:30N 32°36' E 126°24'1213.1
2017-Sep-19 04:33N 32°45' E 126°35'113.2
2017-Sep-19 04:30N 32°46' E 126°35'3312.9
2017-Sep-19 01:56N 33°10' E 127°02'712.7
2017-Sep-19 01:22N 33°15' E 127°08'  
2017-Sep-14 11:57N 37°39' E 123°21'1215.7
2017-Sep-14 11:10N 37°50' E 123°15'1115.0
2017-Sep-14 10:27N 37°56' E 123°03'715.7
2017-Sep-14 10:00N 37°59' E 122°56'1315.5
2017-Sep-14 09:11N 38°04' E 122°40'315.4
2017-Sep-14 09:00N 38°05' E 122°37'915.3
2017-Sep-14 08:24N 38°07' E 122°26'615.2
2017-Sep-14 07:58N 38°09' E 122°18'715.0
2017-Sep-14 07:29N 38°12' E 122°09'714.7
2017-Sep-14 07:01N 38°14' E 122°01'814.9
2017-Sep-14 06:30N 38°16' E 121°52'915.0
2017-Sep-14 05:56N 38°19' E 121°41'615.3
2017-Sep-14 05:30N 38°21' E 121°33'815.3
2017-Sep-14 05:01N 38°23' E 121°24'815.4
2017-Sep-14 04:30N 38°26' E 121°15'3815.2
2017-Sep-14 02:01N 38°38' E 120°29'017.1
2017-Sep-14 02:00N 38°38' E 120°28'714.9
2017-Sep-14 01:30N 38°39' E 120°19'1014.7
2017-Sep-14 00:51N 38°41' E 120°07'2714.4
2017-Sep-13 22:58N 38°42' E 119°32'714.1
2017-Sep-13 22:30N 38°43' E 119°24'713.9
2017-Sep-13 22:01N 38°44' E 119°15'714.0
2017-Sep-13 21:30N 38°45' E 119°06'713.7
2017-Sep-13 21:00N 38°46' E 118°58'714.0
2017-Sep-13 20:31N 38°47' E 118°49'4012.9
2017-Sep-13 17:24N 38°57' E 117°59'511.5
2017-Sep-13 16:57N 38°57' E 117°52'4 8.1
2017-Sep-13 16:30N 38°59' E 117°48'1 2.9
2017-Sep-13 16:00N 39°00' E 117°47'0 0.2
2017-Sep-13 15:24N 39°00' E 117°47'0 0.0
2017-Sep-13 15:00N 39°00' E 117°47'0 0.0
2017-Sep-13 14:30N 39°00' E 117°47'0 0.0
2017-Sep-13 13:48N 39°00' E 117°47'0 0.0
2017-Sep-13 13:24N 39°00' E 117°47'0 0.0
2017-Sep-13 13:00N 39°00' E 117°47'0 0.0
2017-Sep-13 12:24N 39°00' E 117°47'0 0.0
2017-Sep-13 12:00N 39°00' E 117°47'0 0.0
2017-Sep-13 11:24N 39°00' E 117°47'0 0.0
2017-Sep-13 11:00N 39°00' E 117°47'0 0.0
2017-Sep-13 10:30N 39°00' E 117°47'0 0.0
2017-Sep-13 09:48N 39°00' E 117°47'0 0.0
2017-Sep-13 09:24N 39°00' E 117°47'0 0.0
2017-Sep-13 09:00N 39°00' E 117°47'0 0.0
2017-Sep-13 08:27N 39°00' E 117°47'0 0.0
2017-Sep-13 07:57N 39°00' E 117°47'0 0.0
2017-Sep-13 07:30N 39°00' E 117°47'0 0.0
2017-Sep-13 06:57N 39°00' E 117°47'0 0.0
2017-Sep-13 06:27N 39°00' E 117°47'0 0.0
2017-Sep-13 05:59N 39°00' E 117°47'0 0.0
2017-Sep-13 05:29N 39°00' E 117°47'0 0.0
2017-Sep-13 05:01N 39°00' E 117°47'0 0.0
2017-Sep-13 04:25N 39°00' E 117°47'0 0.0
2017-Sep-13 03:58N 39°00' E 117°47'0 0.0
2017-Sep-13 03:25N 39°00' E 117°47'0 0.0
2017-Sep-13 02:55N 39°00' E 117°47'0 0.0
2017-Sep-13 02:25N 39°00' E 117°47'0 0.0
2017-Sep-13 01:55N 39°00' E 117°47'0 0.0
2017-Sep-13 01:19N 39°00' E 117°47'0 0.0
2017-Sep-13 00:55N 39°00' E 117°47'0 0.0
2017-Sep-13 00:27N 39°00' E 117°47'0 0.0
2017-Sep-12 23:57N 39°00' E 117°47'0 0.0
2017-Sep-12 23:27N 39°00' E 117°47'0 0.0
2017-Sep-12 22:59N 39°00' E 117°47'0 0.0
2017-Sep-12 22:29N 39°00' E 117°47'0 0.0
2017-Sep-12 21:53N 39°00' E 117°47'0 0.0
2017-Sep-12 21:29N 39°00' E 117°47'0 0.0
2017-Sep-12 20:59N 39°00' E 117°47'0 0.0
2017-Sep-12 20:29N 39°00' E 117°47'0 0.0
2017-Sep-12 19:53N 39°00' E 117°47'0 0.0
2017-Sep-12 19:29N 39°00' E 117°47'0 0.0
2017-Sep-12 18:59N 39°00' E 117°47'0 0.0
2017-Sep-12 18:23N 39°00' E 117°47'0 0.0
2017-Sep-12 17:59N 39°00' E 117°47'0 0.0
2017-Sep-12 17:10N 39°00' E 117°47'0 0.0
2017-Sep-12 17:00N 39°00' E 117°47'0 0.0
2017-Sep-12 16:22N 39°00' E 117°47'0 0.0
2017-Sep-12 16:00N 39°00' E 117°47'0 0.0
2017-Sep-12 15:30N 39°00' E 117°47'0 0.0
2017-Sep-12 15:00N 39°00' E 117°47'0 0.0
2017-Sep-12 14:30N 39°00' E 117°47'0 0.0
2017-Sep-12 14:00N 39°00' E 117°47'0 0.0
2017-Sep-12 13:30N 39°00' E 117°47'0 0.0
2017-Sep-12 12:56N 39°00' E 117°47'0 0.0
2017-Sep-12 12:20N 39°00' E 117°47'0 0.0
2017-Sep-12 11:58N 39°00' E 117°47'0 0.0
2017-Sep-12 11:28N 39°00' E 117°47'0 0.0
2017-Sep-12 10:58N 39°00' E 117°47'0 0.0
2017-Sep-12 10:28N 39°00' E 117°47'0 0.0
2017-Sep-12 09:58N 39°00' E 117°47'0 0.2
2017-Sep-12 09:30N 38°60' E 117°47'2 4.9
2017-Sep-12 09:00N 38°58' E 117°49'612.4
2017-Sep-12 08:30N 38°57' E 117°57'  
Track history (hours):
 
Tides and Currents Weather Stations Pressure Air Temp Water Temp Dewpoint Dewpoint Depression Visibility Wind Speed Wind Dir Waves Ship Positions

MSC Melatilde

Last reported at 2017-Sep-22 00:58 UTC. Time now 2017-Sep-22 01:14 UTC.
Position N 30°17' E 122°46'.

Length 365 m; draft 10.6 m.

Type: Ship. MMSI: 357240000.

Date/timePositionNaut miles runAvg speedWind from/ knotsBaromVisibWave heightAir tempDewpointWater temp
2017-Sep-22 00:58N 30°17' E 122°46'1916.5
2017-Sep-21 23:51N 29°58' E 122°44'817.2
2017-Sep-21 23:24N 29°52' E 122°39'614.9
2017-Sep-21 23:00N 29°47' E 122°35'713.6
2017-Sep-21 22:30N 29°42' E 122°30'815.2
2017-Sep-21 22:00N 29°44' E 122°21'713.9
2017-Sep-21 21:31N 29°48' E 122°15'713.5
2017-Sep-21 21:01N 29°53' E 122°11'612.3
2017-Sep-21 20:30N 29°54' E 122°04'1 2.2
2017-Sep-21 20:00N 29°53' E 122°02'0 0.0
2017-Sep-21 19:26N 29°53' E 122°02'0 0.0
2017-Sep-21 18:38N 29°53' E 122°02'0 0.0
2017-Sep-21 18:14N 29°53' E 122°02'0 0.0
2017-Sep-21 17:45N 29°53' E 122°02'0 0.0
2017-Sep-21 17:04N 29°53' E 122°02'0 0.0
2017-Sep-21 16:58N 29°53' E 122°02'0 0.0
2017-Sep-21 16:28N 29°53' E 122°02'0 0.0
2017-Sep-21 15:46N 29°53' E 122°02'0 0.0
2017-Sep-21 15:22N 29°53' E 122°02'0 0.0
2017-Sep-21 14:58N 29°53' E 122°02'0 0.0
2017-Sep-21 14:28N 29°53' E 122°02'0 0.0
2017-Sep-21 14:00N 29°53' E 122°02'0 0.0
2017-Sep-21 13:18N 29°53' E 122°02'0 0.0
2017-Sep-21 13:00N 29°53' E 122°02'0 0.0
2017-Sep-21 12:30N 29°53' E 122°02'0 0.0
2017-Sep-21 11:54N 29°53' E 122°02'0 0.0
2017-Sep-21 11:30N 29°53' E 122°02'0 0.0
2017-Sep-21 10:36N 29°53' E 122°02'0 0.0
2017-Sep-21 10:30N 29°53' E 122°02'0 0.0
2017-Sep-21 10:00N 29°53' E 122°02'0 0.0
2017-Sep-21 09:30N 29°53' E 122°02'0 0.0
2017-Sep-21 09:00N 29°53' E 122°02'0 0.0
2017-Sep-21 08:30N 29°53' E 122°02'0 0.0
2017-Sep-21 08:00N 29°53' E 122°02'0 0.0
2017-Sep-21 07:30N 29°53' E 122°02'0 0.0
2017-Sep-21 06:48N 29°53' E 122°02'0 0.0
2017-Sep-21 06:24N 29°53' E 122°02'0 0.0
2017-Sep-21 05:54N 29°53' E 122°02'0 0.0
2017-Sep-21 04:54N 29°53' E 122°02'0 0.0
2017-Sep-21 04:30N 29°53' E 122°02'0 0.0
2017-Sep-21 04:00N 29°53' E 122°02'0 0.0
2017-Sep-21 03:30N 29°53' E 122°02'0 0.0
2017-Sep-21 03:00N 29°53' E 122°02'0 0.0
2017-Sep-21 02:18N 29°53' E 122°02'0 0.0
2017-Sep-21 02:00N 29°53' E 122°02'0 0.0
2017-Sep-21 01:24N 29°53' E 122°02'0 0.0
2017-Sep-21 01:00N 29°53' E 122°02'0 0.0
2017-Sep-21 00:30N 29°53' E 122°02'0 0.0
2017-Sep-20 23:54N 29°53' E 122°02'0 0.0
2017-Sep-20 23:30N 29°53' E 122°02'0 0.0
2017-Sep-20 23:00N 29°53' E 122°02'0 0.0
2017-Sep-20 22:30N 29°53' E 122°02'0 0.0
2017-Sep-20 22:00N 29°53' E 122°02'0 0.0
2017-Sep-20 21:18N 29°53' E 122°02'0 0.0
2017-Sep-20 21:00N 29°53' E 122°02'0 0.0
2017-Sep-20 20:12N 29°53' E 122°02'0 0.0
2017-Sep-20 17:13N 29°53' E 122°02'0 0.0
2017-Sep-20 16:55N 29°53' E 122°02'0 0.0
2017-Sep-20 16:26N 29°53' E 122°02'0 0.4
2017-Sep-20 16:00N 29°54' E 122°03'3 5.4
2017-Sep-20 15:29N 29°55' E 122°05'4 7.6
2017-Sep-20 15:01N 29°55' E 122°09'1111.4
2017-Sep-20 14:00N 29°46' E 122°17'611.2
2017-Sep-20 13:30N 29°44' E 122°23'612.1
2017-Sep-20 13:01N 29°42' E 122°30'713.1
2017-Sep-20 12:30N 29°42' E 122°37'510.6
2017-Sep-20 12:00N 29°46' E 122°41'0 0.7
2017-Sep-20 11:29N 29°46' E 122°42'1 1.0
2017-Sep-20 11:00N 29°46' E 122°42'2 4.7
2017-Sep-20 10:30N 29°48' E 122°43'3 6.7
2017-Sep-20 10:00N 29°51' E 122°45'4 7.0
2017-Sep-20 09:29N 29°54' E 122°48'7 8.4
2017-Sep-20 08:39N 29°58' E 122°54'202 8.5
2017-Sep-19 08:45N 32°11' E 125°52'2 8.3
2017-Sep-19 08:29N 32°11' E 125°55'13 9.9
2017-Sep-19 07:13N 32°20' E 126°06'313.3
2017-Sep-19 07:00N 32°22' E 126°08'1613.3
2017-Sep-19 05:50N 32°33' E 126°21'413.3
2017-Sep-19 05:30N 32°36' E 126°24'1213.1
2017-Sep-19 04:33N 32°45' E 126°35'113.2
2017-Sep-19 04:30N 32°46' E 126°35'3312.9
2017-Sep-19 01:56N 33°10' E 127°02'712.7
2017-Sep-19 01:22N 33°15' E 127°08'  
2017-Sep-14 11:57N 37°39' E 123°21'1215.7
2017-Sep-14 11:10N 37°50' E 123°15'1115.0
2017-Sep-14 10:27N 37°56' E 123°03'715.7
2017-Sep-14 10:00N 37°59' E 122°56'1315.5
2017-Sep-14 09:11N 38°04' E 122°40'315.4
2017-Sep-14 09:00N 38°05' E 122°37'915.3
2017-Sep-14 08:24N 38°07' E 122°26'615.2
2017-Sep-14 07:58N 38°09' E 122°18'715.0
2017-Sep-14 07:29N 38°12' E 122°09'714.7
2017-Sep-14 07:01N 38°14' E 122°01'814.9
2017-Sep-14 06:30N 38°16' E 121°52'915.0
2017-Sep-14 05:56N 38°19' E 121°41'615.3
2017-Sep-14 05:30N 38°21' E 121°33'815.3
2017-Sep-14 05:01N 38°23' E 121°24'815.4
2017-Sep-14 04:30N 38°26' E 121°15'3815.2
2017-Sep-14 02:01N 38°38' E 120°29'017.1
2017-Sep-14 02:00N 38°38' E 120°28'714.9
2017-Sep-14 01:30N 38°39' E 120°19'1014.7
2017-Sep-14 00:51N 38°41' E 120°07'2714.4
2017-Sep-13 22:58N 38°42' E 119°32'714.1
2017-Sep-13 22:30N 38°43' E 119°24'713.9
2017-Sep-13 22:01N 38°44' E 119°15'714.0
2017-Sep-13 21:30N 38°45' E 119°06'713.7
2017-Sep-13 21:00N 38°46' E 118°58'714.0
2017-Sep-13 20:31N 38°47' E 118°49'4012.9
2017-Sep-13 17:24N 38°57' E 117°59'511.5
2017-Sep-13 16:57N 38°57' E 117°52'4 8.1
2017-Sep-13 16:30N 38°59' E 117°48'1 2.9
2017-Sep-13 16:00N 39°00' E 117°47'0 0.2
2017-Sep-13 15:24N 39°00' E 117°47'0 0.0
2017-Sep-13 15:00N 39°00' E 117°47'0 0.0
2017-Sep-13 14:30N 39°00' E 117°47'0 0.0
2017-Sep-13 13:48N 39°00' E 117°47'0 0.0
2017-Sep-13 13:24N 39°00' E 117°47'0 0.0
2017-Sep-13 13:00N 39°00' E 117°47'0 0.0
2017-Sep-13 12:24N 39°00' E 117°47'0 0.0
2017-Sep-13 12:00N 39°00' E 117°47'0 0.0
2017-Sep-13 11:24N 39°00' E 117°47'0 0.0
2017-Sep-13 11:00N 39°00' E 117°47'0 0.0
2017-Sep-13 10:30N 39°00' E 117°47'0 0.0
2017-Sep-13 09:48N 39°00' E 117°47'0 0.0
2017-Sep-13 09:24N 39°00' E 117°47'0 0.0
2017-Sep-13 09:00N 39°00' E 117°47'0 0.0
2017-Sep-13 08:27N 39°00' E 117°47'0 0.0
2017-Sep-13 07:57N 39°00' E 117°47'0 0.0
2017-Sep-13 07:30N 39°00' E 117°47'0 0.0
2017-Sep-13 06:57N 39°00' E 117°47'0 0.0
2017-Sep-13 06:27N 39°00' E 117°47'0 0.0
2017-Sep-13 05:59N 39°00' E 117°47'0 0.0
2017-Sep-13 05:29N 39°00' E 117°47'0 0.0
2017-Sep-13 05:01N 39°00' E 117°47'0 0.0
2017-Sep-13 04:25N 39°00' E 117°47'0 0.0
2017-Sep-13 03:58N 39°00' E 117°47'0 0.0
2017-Sep-13 03:25N 39°00' E 117°47'0 0.0
2017-Sep-13 02:55N 39°00' E 117°47'0 0.0
2017-Sep-13 02:25N 39°00' E 117°47'0 0.0
2017-Sep-13 01:55N 39°00' E 117°47'0 0.0
2017-Sep-13 01:19N 39°00' E 117°47'0 0.0
2017-Sep-13 00:55N 39°00' E 117°47'0 0.0
2017-Sep-13 00:27N 39°00' E 117°47'0 0.0
2017-Sep-12 23:57N 39°00' E 117°47'0 0.0
2017-Sep-12 23:27N 39°00' E 117°47'0 0.0
2017-Sep-12 22:59N 39°00' E 117°47'0 0.0
2017-Sep-12 22:29N 39°00' E 117°47'0 0.0
2017-Sep-12 21:53N 39°00' E 117°47'0 0.0
2017-Sep-12 21:29N 39°00' E 117°47'0 0.0
2017-Sep-12 20:59N 39°00' E 117°47'0 0.0
2017-Sep-12 20:29N 39°00' E 117°47'0 0.0
2017-Sep-12 19:53N 39°00' E 117°47'0 0.0
2017-Sep-12 19:29N 39°00' E 117°47'0 0.0
2017-Sep-12 18:59N 39°00' E 117°47'0 0.0
2017-Sep-12 18:23N 39°00' E 117°47'0 0.0
2017-Sep-12 17:59N 39°00' E 117°47'0 0.0
2017-Sep-12 17:10N 39°00' E 117°47'0 0.0
2017-Sep-12 17:00N 39°00' E 117°47'0 0.0
2017-Sep-12 16:22N 39°00' E 117°47'0 0.0
2017-Sep-12 16:00N 39°00' E 117°47'0 0.0
2017-Sep-12 15:30N 39°00' E 117°47'0 0.0
2017-Sep-12 15:00N 39°00' E 117°47'0 0.0
2017-Sep-12 14:30N 39°00' E 117°47'0 0.0
2017-Sep-12 14:00N 39°00' E 117°47'0 0.0
2017-Sep-12 13:30N 39°00' E 117°47'0 0.0
2017-Sep-12 12:56N 39°00' E 117°47'0 0.0
2017-Sep-12 12:20N 39°00' E 117°47'0 0.0
2017-Sep-12 11:58N 39°00' E 117°47'0 0.0
2017-Sep-12 11:28N 39°00' E 117°47'0 0.0
2017-Sep-12 10:58N 39°00' E 117°47'0 0.0
2017-Sep-12 10:28N 39°00' E 117°47'0 0.0
2017-Sep-12 09:58N 39°00' E 117°47'0 0.2
2017-Sep-12 09:30N 38°60' E 117°47'2 4.9
2017-Sep-12 09:00N 38°58' E 117°49'612.4
2017-Sep-12 08:30N 38°57' E 117°57'  

Dump ship's entire track history